sensor_id;sensor_type;location;lat;lon;timestamp;pressure;altitude;pressure_sealevel;temperature
74060;BMP280;62414;53.436;8.828;2022-12-29T00:02:24;99411.84;;;9.39
74060;BMP280;62414;53.436;8.828;2022-12-29T00:04:49;99402.88;;;9.42
74060;BMP280;62414;53.436;8.828;2022-12-29T00:07:15;99402.13;;;9.41
74060;BMP280;62414;53.436;8.828;2022-12-29T00:09:40;99380.66;;;9.38
74060;BMP280;62414;53.436;8.828;2022-12-29T00:12:06;99389.97;;;9.37
74060;BMP280;62414;53.436;8.828;2022-12-29T00:14:31;99391.31;;;9.41
74060;BMP280;62414;53.436;8.828;2022-12-29T00:16:58;99394.75;;;9.42
74060;BMP280;62414;53.436;8.828;2022-12-29T00:19:24;99378.84;;;9.44
74060;BMP280;62414;53.436;8.828;2022-12-29T00:21:49;99375.22;;;9.47
74060;BMP280;62414;53.436;8.828;2022-12-29T00:24:17;99365.50;;;9.49
74060;BMP280;62414;53.436;8.828;2022-12-29T00:26:43;99370.91;;;9.49
74060;BMP280;62414;53.436;8.828;2022-12-29T00:29:08;99376.59;;;9.51
74060;BMP280;62414;53.436;8.828;2022-12-29T00:31:34;99379.00;;;9.49
74060;BMP280;62414;53.436;8.828;2022-12-29T00:34:00;99366.50;;;9.52
74060;BMP280;62414;53.436;8.828;2022-12-29T00:36:30;99370.56;;;9.57
74060;BMP280;62414;53.436;8.828;2022-12-29T00:38:59;99369.34;;;9.58
74060;BMP280;62414;53.436;8.828;2022-12-29T00:41:25;99368.16;;;9.59
74060;BMP280;62414;53.436;8.828;2022-12-29T00:43:52;99367.22;;;9.62
74060;BMP280;62414;53.436;8.828;2022-12-29T00:46:17;99357.94;;;9.63
74060;BMP280;62414;53.436;8.828;2022-12-29T00:48:43;99356.41;;;9.62
74060;BMP280;62414;53.436;8.828;2022-12-29T00:51:10;99351.31;;;9.64
74060;BMP280;62414;53.436;8.828;2022-12-29T00:53:35;99350.00;;;9.59
74060;BMP280;62414;53.436;8.828;2022-12-29T00:56:00;99353.13;;;9.58
74060;BMP280;62414;53.436;8.828;2022-12-29T00:58:27;99350.44;;;9.58
74060;BMP280;62414;53.436;8.828;2022-12-29T01:00:52;99346.84;;;9.61
74060;BMP280;62414;53.436;8.828;2022-12-29T01:03:18;99342.91;;;9.62
74060;BMP280;62414;53.436;8.828;2022-12-29T01:05:43;99347.13;;;9.63
74060;BMP280;62414;53.436;8.828;2022-12-29T01:08:10;99330.16;;;9.62
74060;BMP280;62414;53.436;8.828;2022-12-29T01:10:35;99320.88;;;9.63
74060;BMP280;62414;53.436;8.828;2022-12-29T01:13:01;99330.16;;;9.62
74060;BMP280;62414;53.436;8.828;2022-12-29T01:15:26;99331.22;;;9.65
74060;BMP280;62414;53.436;8.828;2022-12-29T01:17:52;99321.16;;;9.65
74060;BMP280;62414;53.436;8.828;2022-12-29T01:20:18;99321.00;;;9.69
74060;BMP280;62414;53.436;8.828;2022-12-29T01:22:43;99319.31;;;9.71
74060;BMP280;62414;53.436;8.828;2022-12-29T01:25:10;99305.38;;;9.73
74060;BMP280;62414;53.436;8.828;2022-12-29T01:27:37;99318.69;;;9.76
74060;BMP280;62414;53.436;8.828;2022-12-29T01:30:04;99319.47;;;9.77
74060;BMP280;62414;53.436;8.828;2022-12-29T01:32:30;99308.94;;;9.79
74060;BMP280;62414;53.436;8.828;2022-12-29T01:34:57;99300.84;;;9.79
74060;BMP280;62414;53.436;8.828;2022-12-29T01:37:23;99311.91;;;9.81
74060;BMP280;62414;53.436;8.828;2022-12-29T01:39:48;99300.34;;;9.80
74060;BMP280;62414;53.436;8.828;2022-12-29T01:42:17;99287.59;;;9.81
74060;BMP280;62414;53.436;8.828;2022-12-29T01:44:51;99288.34;;;9.82
74060;BMP280;62414;53.436;8.828;2022-12-29T01:47:23;99281.75;;;9.83
74060;BMP280;62414;53.436;8.828;2022-12-29T01:49:52;99278.56;;;9.84
74060;BMP280;62414;53.436;8.828;2022-12-29T01:52:18;99280.53;;;9.84
74060;BMP280;62414;53.436;8.828;2022-12-29T01:54:47;99287.44;;;9.85
74060;BMP280;62414;53.436;8.828;2022-12-29T01:57:20;99282.03;;;9.85
74060;BMP280;62414;53.436;8.828;2022-12-29T01:59:49;99276.63;;;9.85
74060;BMP280;62414;53.436;8.828;2022-12-29T02:02:17;99271.69;;;9.83
74060;BMP280;62414;53.436;8.828;2022-12-29T02:04:43;99272.16;;;9.82
74060;BMP280;62414;53.436;8.828;2022-12-29T02:07:13;99272.16;;;9.82
74060;BMP280;62414;53.436;8.828;2022-12-29T02:09:41;99259.38;;;9.82
74060;BMP280;62414;53.436;8.828;2022-12-29T02:12:07;99258.91;;;9.84
74060;BMP280;62414;53.436;8.828;2022-12-29T02:14:34;99259.66;;;9.84
74060;BMP280;62414;53.436;8.828;2022-12-29T02:17:08;99245.25;;;9.87
74060;BMP280;62414;53.436;8.828;2022-12-29T02:20:04;99252.88;;;9.89
74060;BMP280;62414;53.436;8.828;2022-12-29T02:22:36;99240.41;;;9.91
74060;BMP280;62414;53.436;8.828;2022-12-29T02:25:28;99241.16;;;9.92
74060;BMP280;62414;53.436;8.828;2022-12-29T02:28:28;99243.41;;;9.93
74060;BMP280;62414;53.436;8.828;2022-12-29T02:31:05;99253.00;;;9.94
74060;BMP280;62414;53.436;8.828;2022-12-29T02:33:40;99248.34;;;9.95
74060;BMP280;62414;53.436;8.828;2022-12-29T02:36:13;99244.44;;;9.96
74060;BMP280;62414;53.436;8.828;2022-12-29T02:38:59;99233.16;;;9.97
74060;BMP280;62414;53.436;8.828;2022-12-29T02:41:31;99250.38;;;10.00
74060;BMP280;62414;53.436;8.828;2022-12-29T02:44:04;99250.69;;;10.02
74060;BMP280;62414;53.436;8.828;2022-12-29T02:46:36;99232.63;;;10.08
74060;BMP280;62414;53.436;8.828;2022-12-29T02:49:07;99236.25;;;10.05
74060;BMP280;62414;53.436;8.828;2022-12-29T02:51:39;99235.63;;;10.10
74060;BMP280;62414;53.436;8.828;2022-12-29T02:54:05;99240.84;;;10.14
74060;BMP280;62414;53.436;8.828;2022-12-29T02:56:31;99244.03;;;10.12
74060;BMP280;62414;53.436;8.828;2022-12-29T02:58:57;99228.34;;;10.16
74060;BMP280;62414;53.436;8.828;2022-12-29T03:01:32;99221.72;;;10.17
74060;BMP280;62414;53.436;8.828;2022-12-29T03:04:17;99221.81;;;10.23
74060;BMP280;62414;53.436;8.828;2022-12-29T03:06:52;99229.94;;;10.23
74060;BMP280;62414;53.436;8.828;2022-12-29T03:09:29;99218.41;;;10.22
74060;BMP280;62414;53.436;8.828;2022-12-29T03:11:59;99220.44;;;10.27
74060;BMP280;62414;53.436;8.828;2022-12-29T03:14:27;99215.13;;;10.33
74060;BMP280;62414;53.436;8.828;2022-12-29T03:16:58;99214.22;;;10.36
74060;BMP280;62414;53.436;8.828;2022-12-29T03:19:30;99211.78;;;10.38
74060;BMP280;62414;53.436;8.828;2022-12-29T03:21:59;99217.75;;;10.42
74060;BMP280;62414;53.436;8.828;2022-12-29T03:24:31;99213.28;;;10.39
74060;BMP280;62414;53.436;8.828;2022-12-29T03:26:59;99210.69;;;10.45
74060;BMP280;62414;53.436;8.828;2022-12-29T03:29:31;99204.81;;;10.46
74060;BMP280;62414;53.436;8.828;2022-12-29T03:31:59;99196.78;;;10.52
74060;BMP280;62414;53.436;8.828;2022-12-29T03:34:27;99203.97;;;10.55
74060;BMP280;62414;53.436;8.828;2022-12-29T03:37:04;99201.75;;;10.53
74060;BMP280;62414;53.436;8.828;2022-12-29T03:39:31;99191.66;;;10.54
74060;BMP280;62414;53.436;8.828;2022-12-29T03:42:01;99192.66;;;10.56
74060;BMP280;62414;53.436;8.828;2022-12-29T03:44:32;99194.91;;;10.58
74060;BMP280;62414;53.436;8.828;2022-12-29T03:46:58;99190.53;;;10.60
74060;BMP280;62414;53.436;8.828;2022-12-29T03:49:24;99191.00;;;10.59
74060;BMP280;62414;53.436;8.828;2022-12-29T03:51:51;99185.28;;;10.57
74060;BMP280;62414;53.436;8.828;2022-12-29T03:54:17;99177.66;;;10.55
74060;BMP280;62414;53.436;8.828;2022-12-29T03:56:43;99168.63;;;10.58
74060;BMP280;62414;53.436;8.828;2022-12-29T03:59:09;99177.75;;;10.61
74060;BMP280;62414;53.436;8.828;2022-12-29T04:01:38;99176.25;;;10.60
74060;BMP280;62414;53.436;8.828;2022-12-29T04:04:04;99183.47;;;10.63
74060;BMP280;62414;53.436;8.828;2022-12-29T04:06:30;99165.44;;;10.60
74060;BMP280;62414;53.436;8.828;2022-12-29T04:09:07;99162.81;;;10.51
74060;BMP280;62414;53.436;8.828;2022-12-29T04:11:37;99159.94;;;10.39
74060;BMP280;62414;53.436;8.828;2022-12-29T04:14:03;99148.25;;;10.33
74060;BMP280;62414;53.436;8.828;2022-12-29T04:16:31;99146.22;;;10.28
74060;BMP280;62414;53.436;8.828;2022-12-29T04:18:56;99142.19;;;10.24
74060;BMP280;62414;53.436;8.828;2022-12-29T04:21:22;99140.16;;;10.19
74060;BMP280;62414;53.436;8.828;2022-12-29T04:23:48;99136.88;;;10.15
74060;BMP280;62414;53.436;8.828;2022-12-29T04:26:16;99156.28;;;10.13
74060;BMP280;62414;53.436;8.828;2022-12-29T04:28:54;99144.47;;;10.11
74060;BMP280;62414;53.436;8.828;2022-12-29T04:31:42;99129.16;;;10.07
74060;BMP280;62414;53.436;8.828;2022-12-29T04:34:08;99127.66;;;10.06
74060;BMP280;62414;53.436;8.828;2022-12-29T04:36:33;99121.97;;;10.04
74060;BMP280;62414;53.436;8.828;2022-12-29T04:38:59;99135.69;;;10.01
74060;BMP280;62414;53.436;8.828;2022-12-29T04:41:27;99144.97;;;10.00
74060;BMP280;62414;53.436;8.828;2022-12-29T04:43:53;99135.50;;;10.04
74060;BMP280;62414;53.436;8.828;2022-12-29T04:46:19;99131.84;;;10.07
74060;BMP280;62414;53.436;8.828;2022-12-29T04:48:57;99132.91;;;10.10
74060;BMP280;62414;53.436;8.828;2022-12-29T04:51:43;99146.94;;;10.14
74060;BMP280;62414;53.436;8.828;2022-12-29T04:54:11;99136.13;;;10.14
74060;BMP280;62414;53.436;8.828;2022-12-29T04:56:38;99127.56;;;10.16
74060;BMP280;62414;53.436;8.828;2022-12-29T04:59:04;99132.97;;;10.16
74060;BMP280;62414;53.436;8.828;2022-12-29T05:01:30;99128.75;;;10.15
74060;BMP280;62414;53.436;8.828;2022-12-29T05:03:57;99138.13;;;10.14
74060;BMP280;62414;53.436;8.828;2022-12-29T05:06:22;99144.75;;;10.13
74060;BMP280;62414;53.436;8.828;2022-12-29T05:08:49;99139.34;;;10.13
74060;BMP280;62414;53.436;8.828;2022-12-29T05:11:14;99132.50;;;10.17
74060;BMP280;62414;53.436;8.828;2022-12-29T05:13:44;99141.22;;;10.21
74060;BMP280;62414;53.436;8.828;2022-12-29T05:16:10;99125.97;;;10.24
74060;BMP280;62414;53.436;8.828;2022-12-29T05:18:36;99124.78;;;10.25
74060;BMP280;62414;53.436;8.828;2022-12-29T05:21:03;99129.25;;;10.28
74060;BMP280;62414;53.436;8.828;2022-12-29T05:23:28;99138.13;;;10.28
74060;BMP280;62414;53.436;8.828;2022-12-29T05:26:05;99134.56;;;10.37
74060;BMP280;62414;53.436;8.828;2022-12-29T05:28:57;99147.91;;;10.41
74060;BMP280;62414;53.436;8.828;2022-12-29T05:31:23;99142.69;;;10.37
74060;BMP280;62414;53.436;8.828;2022-12-29T05:33:48;99142.25;;;10.38
74060;BMP280;62414;53.436;8.828;2022-12-29T05:36:14;99142.69;;;10.37
74060;BMP280;62414;53.436;8.828;2022-12-29T05:38:44;99141.94;;;10.36
74060;BMP280;62414;53.436;8.828;2022-12-29T05:41:10;99146.34;;;10.34
74060;BMP280;62414;53.436;8.828;2022-12-29T05:43:53;99147.66;;;10.38
74060;BMP280;62414;53.436;8.828;2022-12-29T05:46:49;99154.63;;;10.45
74060;BMP280;62414;53.436;8.828;2022-12-29T05:49:19;99159.09;;;10.48
74060;BMP280;62414;53.436;8.828;2022-12-29T05:52:11;99137.47;;;10.48
74060;BMP280;62414;53.436;8.828;2022-12-29T05:54:37;99158.47;;;10.53
74060;BMP280;62414;53.436;8.828;2022-12-29T05:57:09;99159.66;;;10.52
74060;BMP280;62414;53.436;8.828;2022-12-29T05:59:36;99143.34;;;10.47
74060;BMP280;62414;53.436;8.828;2022-12-29T06:02:02;99154.53;;;10.39
74060;BMP280;62414;53.436;8.828;2022-12-29T06:04:28;99141.66;;;10.34
74060;BMP280;62414;53.436;8.828;2022-12-29T06:06:54;99146.53;;;10.30
74060;BMP280;62414;53.436;8.828;2022-12-29T06:09:32;99145.66;;;10.24
74060;BMP280;62414;53.436;8.828;2022-12-29T06:11:58;99155.47;;;10.22
74060;BMP280;62414;53.436;8.828;2022-12-29T06:14:25;99147.25;;;10.16
74060;BMP280;62414;53.436;8.828;2022-12-29T06:16:50;99138.38;;;10.16
74060;BMP280;62414;53.436;8.828;2022-12-29T06:19:17;99142.19;;;10.24
74060;BMP280;62414;53.436;8.828;2022-12-29T06:21:43;99139.31;;;10.27
74060;BMP280;62414;53.436;8.828;2022-12-29T06:24:09;99148.00;;;10.31
74060;BMP280;62414;53.436;8.828;2022-12-29T06:26:36;99151.63;;;10.28
74060;BMP280;62414;53.436;8.828;2022-12-29T06:29:01;99160.75;;;10.31
74060;BMP280;62414;53.436;8.828;2022-12-29T06:31:27;99150.97;;;10.33
74060;BMP280;62414;53.436;8.828;2022-12-29T06:33:53;99161.03;;;10.33
74060;BMP280;62414;53.436;8.828;2022-12-29T06:36:20;99174.13;;;10.34
74060;BMP280;62414;53.436;8.828;2022-12-29T06:38:45;99167.78;;;10.37
74060;BMP280;62414;53.436;8.828;2022-12-29T06:41:11;99176.44;;;10.42
74060;BMP280;62414;53.436;8.828;2022-12-29T06:43:55;99175.06;;;10.46
74060;BMP280;62414;53.436;8.828;2022-12-29T06:46:48;99188.00;;;10.57
74060;BMP280;62414;53.436;8.828;2022-12-29T06:49:14;99192.97;;;10.58
74060;BMP280;62414;53.436;8.828;2022-12-29T06:51:41;99190.19;;;10.53
74060;BMP280;62414;53.436;8.828;2022-12-29T06:54:06;99192.03;;;10.47
74060;BMP280;62414;53.436;8.828;2022-12-29T06:56:32;99187.16;;;10.36
74060;BMP280;62414;53.436;8.828;2022-12-29T06:58:57;99181.56;;;10.25
74060;BMP280;62414;53.436;8.828;2022-12-29T07:01:23;99190.50;;;10.16
74060;BMP280;62414;53.436;8.828;2022-12-29T07:03:48;99190.44;;;10.25
74060;BMP280;62414;53.436;8.828;2022-12-29T07:06:13;99183.53;;;10.24
74060;BMP280;62414;53.436;8.828;2022-12-29T07:08:40;99195.28;;;10.21
74060;BMP280;62414;53.436;8.828;2022-12-29T07:11:06;99204.28;;;10.18
74060;BMP280;62414;53.436;8.828;2022-12-29T07:13:31;99206.25;;;10.18
74060;BMP280;62414;53.436;8.828;2022-12-29T07:15:57;99207.47;;;10.17
74060;BMP280;62414;53.436;8.828;2022-12-29T07:18:22;99214.75;;;10.25
74060;BMP280;62414;53.436;8.828;2022-12-29T07:20:47;99216.91;;;10.21
74060;BMP280;62414;53.436;8.828;2022-12-29T07:23:13;99211.66;;;10.18
74060;BMP280;62414;53.436;8.828;2022-12-29T07:25:40;99218.28;;;10.17
74060;BMP280;62414;53.436;8.828;2022-12-29T07:28:05;99211.38;;;10.16
74060;BMP280;62414;53.436;8.828;2022-12-29T07:30:31;99214.75;;;10.11
74060;BMP280;62414;53.436;8.828;2022-12-29T07:32:56;99216.41;;;10.08
74060;BMP280;62414;53.436;8.828;2022-12-29T07:35:22;99206.53;;;10.05
74060;BMP280;62414;53.436;8.828;2022-12-29T07:37:47;99226.81;;;10.00
74060;BMP280;62414;53.436;8.828;2022-12-29T07:40:13;99230.16;;;9.95
74060;BMP280;62414;53.436;8.828;2022-12-29T07:42:40;99235.38;;;9.99
74060;BMP280;62414;53.436;8.828;2022-12-29T07:45:08;99239.50;;;10.09
74060;BMP280;62414;53.436;8.828;2022-12-29T07:47:54;99255.72;;;10.09
74060;BMP280;62414;53.436;8.828;2022-12-29T07:50:19;99257.72;;;10.23
74060;BMP280;62414;53.436;8.828;2022-12-29T07:52:45;99271.97;;;10.24
74060;BMP280;62414;53.436;8.828;2022-12-29T07:55:10;99274.25;;;10.25
74060;BMP280;62414;53.436;8.828;2022-12-29T07:57:36;99275.09;;;10.31
74060;BMP280;62414;53.436;8.828;2022-12-29T08:00:03;99281.72;;;10.30
74060;BMP280;62414;53.436;8.828;2022-12-29T08:02:37;99289.53;;;10.28
74060;BMP280;62414;53.436;8.828;2022-12-29T08:05:03;99305.13;;;10.33
74060;BMP280;62414;53.436;8.828;2022-12-29T08:07:28;99289.19;;;10.35
74060;BMP280;62414;53.436;8.828;2022-12-29T08:09:54;99292.81;;;10.32
74060;BMP280;62414;53.436;8.828;2022-12-29T08:12:19;99296.16;;;10.27
74060;BMP280;62414;53.436;8.828;2022-12-29T08:14:45;99305.44;;;10.35
74060;BMP280;62414;53.436;8.828;2022-12-29T08:17:12;99301.88;;;10.29
74060;BMP280;62414;53.436;8.828;2022-12-29T08:19:38;99297.97;;;10.30
74060;BMP280;62414;53.436;8.828;2022-12-29T08:22:03;99308.88;;;10.36
74060;BMP280;62414;53.436;8.828;2022-12-29T08:24:29;99307.94;;;10.39
74060;BMP280;62414;53.436;8.828;2022-12-29T08:26:54;99310.19;;;10.41
74060;BMP280;62414;53.436;8.828;2022-12-29T08:29:20;99317.53;;;10.40
74060;BMP280;62414;53.436;8.828;2022-12-29T08:31:45;99298.63;;;10.40
74060;BMP280;62414;53.436;8.828;2022-12-29T08:34:12;99330.25;;;10.49
74060;BMP280;62414;53.436;8.828;2022-12-29T08:36:39;99330.53;;;10.51
74060;BMP280;62414;53.436;8.828;2022-12-29T08:39:04;99328.13;;;10.53
74060;BMP280;62414;53.436;8.828;2022-12-29T08:41:30;99343.16;;;10.54
74060;BMP280;62414;53.436;8.828;2022-12-29T08:43:55;99359.94;;;10.58
74060;BMP280;62414;53.436;8.828;2022-12-29T08:46:21;99357.19;;;10.67
74060;BMP280;62414;53.436;8.828;2022-12-29T08:48:46;99350.47;;;10.62
74060;BMP280;62414;53.436;8.828;2022-12-29T08:51:14;99352.13;;;10.60
74060;BMP280;62414;53.436;8.828;2022-12-29T08:53:39;99370.78;;;10.58
74060;BMP280;62414;53.436;8.828;2022-12-29T08:56:06;99367.50;;;10.54
74060;BMP280;62414;53.436;8.828;2022-12-29T08:58:41;99364.50;;;10.52
74060;BMP280;62414;53.436;8.828;2022-12-29T09:01:09;99375.78;;;10.50
74060;BMP280;62414;53.436;8.828;2022-12-29T09:03:35;99371.31;;;10.47
74060;BMP280;62414;53.436;8.828;2022-12-29T09:06:00;99372.59;;;10.52
74060;BMP280;62414;53.436;8.828;2022-12-29T09:08:27;99373.66;;;10.54
74060;BMP280;62414;53.436;8.828;2022-12-29T09:10:52;99373.16;;;10.56
74060;BMP280;62414;53.436;8.828;2022-12-29T09:13:18;99382.56;;;10.70
74060;BMP280;62414;53.436;8.828;2022-12-29T09:15:44;99390.22;;;10.71
74060;BMP280;62414;53.436;8.828;2022-12-29T09:18:10;99400.75;;;10.69
74060;BMP280;62414;53.436;8.828;2022-12-29T09:20:36;99408.59;;;10.67
74060;BMP280;62414;53.436;8.828;2022-12-29T09:23:02;99402.31;;;10.61
74060;BMP280;62414;53.436;8.828;2022-12-29T09:25:29;99408.09;;;10.54
74060;BMP280;62414;53.436;8.828;2022-12-29T09:27:54;99423.72;;;10.50
74060;BMP280;62414;53.436;8.828;2022-12-29T09:30:21;99419.16;;;10.56
74060;BMP280;62414;53.436;8.828;2022-12-29T09:32:47;99418.91;;;10.54
74060;BMP280;62414;53.436;8.828;2022-12-29T09:35:13;99423.56;;;10.53
74060;BMP280;62414;53.436;8.828;2022-12-29T09:37:39;99415.16;;;10.51
74060;BMP280;62414;53.436;8.828;2022-12-29T09:40:05;99405.63;;;10.56
74060;BMP280;62414;53.436;8.828;2022-12-29T09:42:38;99436.28;;;10.62
74060;BMP280;62414;53.436;8.828;2022-12-29T09:45:12;99426.97;;;10.63
74060;BMP280;62414;53.436;8.828;2022-12-29T09:47:40;99418.09;;;10.62
74060;BMP280;62414;53.436;8.828;2022-12-29T09:50:17;99417.63;;;10.64
74060;BMP280;62414;53.436;8.828;2022-12-29T09:52:47;99416.59;;;10.61
74060;BMP280;62414;53.436;8.828;2022-12-29T09:55:16;99412.38;;;10.60
74060;BMP280;62414;53.436;8.828;2022-12-29T09:57:47;99421.16;;;10.55
74060;BMP280;62414;53.436;8.828;2022-12-29T10:00:17;99433.00;;;10.58
74060;BMP280;62414;53.436;8.828;2022-12-29T10:02:44;99417.22;;;10.56
74060;BMP280;62414;53.436;8.828;2022-12-29T10:05:22;99402.22;;;10.55
74060;BMP280;62414;53.436;8.828;2022-12-29T10:07:53;99411.78;;;10.56
74060;BMP280;62414;53.436;8.828;2022-12-29T10:10:30;99411.03;;;10.56
74060;BMP280;62414;53.436;8.828;2022-12-29T10:13:16;99417.22;;;10.56
74060;BMP280;62414;53.436;8.828;2022-12-29T10:15:50;99408.66;;;10.58
74060;BMP280;62414;53.436;8.828;2022-12-29T10:18:30;99417.34;;;10.62
74060;BMP280;62414;53.436;8.828;2022-12-29T10:21:02;99414.06;;;10.58
74060;BMP280;62414;53.436;8.828;2022-12-29T10:23:32;99418.72;;;10.57
74060;BMP280;62414;53.436;8.828;2022-12-29T10:25:59;99410.91;;;10.59
74060;BMP280;62414;53.436;8.828;2022-12-29T10:28:36;99409.22;;;10.62
74060;BMP280;62414;53.436;8.828;2022-12-29T10:31:06;99408.28;;;10.65
74060;BMP280;62414;53.436;8.828;2022-12-29T10:33:35;99422.69;;;10.71
74060;BMP280;62414;53.436;8.828;2022-12-29T10:36:12;99433.31;;;10.75
74060;BMP280;62414;53.436;8.828;2022-12-29T10:38:40;99439.03;;;10.77
74060;BMP280;62414;53.436;8.828;2022-12-29T10:41:13;99442.19;;;10.75
74060;BMP280;62414;53.436;8.828;2022-12-29T10:43:45;99441.63;;;10.71
74060;BMP280;62414;53.436;8.828;2022-12-29T10:46:13;99439.53;;;10.66
74060;BMP280;62414;53.436;8.828;2022-12-29T10:48:40;99451.56;;;10.65
74060;BMP280;62414;53.436;8.828;2022-12-29T10:51:07;99460.75;;;10.67
74060;BMP280;62414;53.436;8.828;2022-12-29T10:53:37;99444.22;;;10.65
74060;BMP280;62414;53.436;8.828;2022-12-29T10:56:20;99454.19;;;10.59
74060;BMP280;62414;53.436;8.828;2022-12-29T10:58:49;99456.88;;;10.59
74060;BMP280;62414;53.436;8.828;2022-12-29T11:01:16;99444.81;;;10.70
74060;BMP280;62414;53.436;8.828;2022-12-29T11:03:58;99452.00;;;10.73
74060;BMP280;62414;53.436;8.828;2022-12-29T11:06:28;99453.66;;;10.70
74060;BMP280;62414;53.436;8.828;2022-12-29T11:08:56;99461.78;;;10.70
74060;BMP280;62414;53.436;8.828;2022-12-29T11:11:25;99462.81;;;10.73
74060;BMP280;62414;53.436;8.828;2022-12-29T11:13:57;99457.53;;;10.78
74060;BMP280;62414;53.436;8.828;2022-12-29T11:16:31;99459.13;;;10.85
74060;BMP280;62414;53.436;8.828;2022-12-29T11:18:57;99463.63;;;10.88
74060;BMP280;62414;53.436;8.828;2022-12-29T11:21:40;99468.16;;;10.82
74060;BMP280;62414;53.436;8.828;2022-12-29T11:24:19;99460.22;;;10.78
74060;BMP280;62414;53.436;8.828;2022-12-29T11:26:45;99451.06;;;10.76
74060;BMP280;62414;53.436;8.828;2022-12-29T11:29:21;99456.75;;;10.63
74060;BMP280;62414;53.436;8.828;2022-12-29T11:31:48;99452.97;;;10.60
74060;BMP280;62414;53.436;8.828;2022-12-29T11:34:17;99427.94;;;10.51
74060;BMP280;62414;53.436;8.828;2022-12-29T11:36:43;99415.41;;;10.38
74060;BMP280;62414;53.436;8.828;2022-12-29T11:42:06;99408.72;;;10.25
74060;BMP280;62414;53.436;8.828;2022-12-29T11:44:42;99406.66;;;10.20
74060;BMP280;62414;53.436;8.828;2022-12-29T11:47:13;99412.50;;;10.18
74060;BMP280;62414;53.436;8.828;2022-12-29T11:49:49;99406.75;;;10.25
74060;BMP280;62414;53.436;8.828;2022-12-29T11:52:15;99415.47;;;10.29
74060;BMP280;62414;53.436;8.828;2022-12-29T11:54:42;99429.97;;;10.32
74060;BMP280;62414;53.436;8.828;2022-12-29T11:57:10;99413.50;;;10.30
74060;BMP280;62414;53.436;8.828;2022-12-29T11:59:41;99397.75;;;10.19
74060;BMP280;62414;53.436;8.828;2022-12-29T12:02:25;99399.47;;;10.07
74060;BMP280;62414;53.436;8.828;2022-12-29T12:04:57;99393.66;;;10.00
74060;BMP280;62414;53.436;8.828;2022-12-29T12:07:33;99398.75;;;9.98
74060;BMP280;62414;53.436;8.828;2022-12-29T12:10:03;99384.53;;;9.88
74060;BMP280;62414;53.436;8.828;2022-12-29T12:12:34;99386.56;;;9.78
74060;BMP280;62414;53.436;8.828;2022-12-29T12:15:02;99381.63;;;9.77
74060;BMP280;62414;53.436;8.828;2022-12-29T12:17:47;99400.06;;;9.78
74060;BMP280;62414;53.436;8.828;2022-12-29T12:20:17;99400.94;;;9.85
74060;BMP280;62414;53.436;8.828;2022-12-29T12:22:47;99406.44;;;9.90
74060;BMP280;62414;53.436;8.828;2022-12-29T12:25:17;99411.28;;;9.86
74060;BMP280;62414;53.436;8.828;2022-12-29T12:27:48;99419.06;;;9.93
74060;BMP280;62414;53.436;8.828;2022-12-29T12:30:19;99402.25;;;9.89
74060;BMP280;62414;53.436;8.828;2022-12-29T12:32:48;99412.81;;;9.87
74060;BMP280;62414;53.436;8.828;2022-12-29T12:35:23;99430.47;;;9.88
74060;BMP280;62414;53.436;8.828;2022-12-29T12:38:15;99424.22;;;9.82
74060;BMP280;62414;53.436;8.828;2022-12-29T12:40:58;99432.31;;;9.82
74060;BMP280;62414;53.436;8.828;2022-12-29T12:43:35;99423.03;;;9.74
74060;BMP280;62414;53.436;8.828;2022-12-29T12:46:24;99418.53;;;9.62
74060;BMP280;62414;53.436;8.828;2022-12-29T12:49:21;99422.78;;;9.54
